sensor_id;sensor_type;location;lat;lon;timestamp;pressure;altitude;pressure_sealevel;temperature;humidity
56330;BME280;42236;48.058;10.632;2023-02-08T00:00:44;96381.78;;;-5.81;76.56
56330;BME280;42236;48.058;10.632;2023-02-08T00:03:30;96369.69;;;-5.82;76.40
56330;BME280;42236;48.058;10.632;2023-02-08T00:06:16;96373.69;;;-5.86;75.64
56330;BME280;42236;48.058;10.632;2023-02-08T00:09:01;96370.84;;;-5.91;75.97
56330;BME280;42236;48.058;10.632;2023-02-08T00:11:48;96369.81;;;-5.97;76.05
56330;BME280;42236;48.058;10.632;2023-02-08T00:14:33;96370.59;;;-6.03;76.17
56330;BME280;42236;48.058;10.632;2023-02-08T00:17:19;96364.72;;;-6.05;76.31
56330;BME280;42236;48.058;10.632;2023-02-08T00:20:05;96354.78;;;-6.10;75.98
56330;BME280;42236;48.058;10.632;2023-02-08T00:22:51;96353.75;;;-6.15;75.70
56330;BME280;42236;48.058;10.632;2023-02-08T00:25:37;96353.94;;;-6.17;76.03
56330;BME280;42236;48.058;10.632;2023-02-08T00:28:23;96351.50;;;-6.18;76.27
56330;BME280;42236;48.058;10.632;2023-02-08T00:31:08;96351.94;;;-6.15;76.62
56330;BME280;42236;48.058;10.632;2023-02-08T00:33:54;96346.84;;;-6.16;75.95
56330;BME280;42236;48.058;10.632;2023-02-08T00:36:40;96352.50;;;-6.19;76.08
56330;BME280;42236;48.058;10.632;2023-02-08T00:39:25;96351.69;;;-6.20;75.74
56330;BME280;42236;48.058;10.632;2023-02-08T00:42:11;96342.56;;;-6.24;76.06
56330;BME280;42236;48.058;10.632;2023-02-08T00:44:57;96343.59;;;-6.25;76.13
56330;BME280;42236;48.058;10.632;2023-02-08T00:47:42;96348.22;;;-6.27;75.62
56330;BME280;42236;48.058;10.632;2023-02-08T00:50:28;96352.91;;;-6.23;76.04
56330;BME280;42236;48.058;10.632;2023-02-08T00:53:13;96349.75;;;-6.05;75.72
56330;BME280;42236;48.058;10.632;2023-02-08T00:55:59;96346.56;;;-5.93;75.01
56330;BME280;42236;48.058;10.632;2023-02-08T00:58:45;96342.13;;;-5.93;74.85
56330;BME280;42236;48.058;10.632;2023-02-08T01:01:30;96341.72;;;-5.96;74.87
56330;BME280;42236;48.058;10.632;2023-02-08T01:04:16;96344.50;;;-6.05;74.95
56330;BME280;42236;48.058;10.632;2023-02-08T01:07:03;96345.06;;;-6.16;75.24
56330;BME280;42236;48.058;10.632;2023-02-08T01:09:48;96342.81;;;-6.19;75.47
56330;BME280;42236;48.058;10.632;2023-02-08T01:12:34;96347.34;;;-6.34;74.56
56330;BME280;42236;48.058;10.632;2023-02-08T01:15:20;96342.28;;;-6.42;75.13
56330;BME280;42236;48.058;10.632;2023-02-08T01:18:05;96334.13;;;-6.48;75.36
56330;BME280;42236;48.058;10.632;2023-02-08T01:20:51;96329.25;;;-6.51;75.78
56330;BME280;42236;48.058;10.632;2023-02-08T01:23:37;96334.13;;;-6.48;76.32
56330;BME280;42236;48.058;10.632;2023-02-08T01:26:24;96334.34;;;-6.49;76.11
56330;BME280;42236;48.058;10.632;2023-02-08T01:29:10;96330.06;;;-6.50;75.93
56330;BME280;42236;48.058;10.632;2023-02-08T01:31:56;96326.41;;;-6.56;76.08
56330;BME280;42236;48.058;10.632;2023-02-08T01:34:42;96332.03;;;-6.59;75.93
56330;BME280;42236;48.058;10.632;2023-02-08T01:37:27;96330.22;;;-6.58;76.62
56330;BME280;42236;48.058;10.632;2023-02-08T01:40:13;96324.78;;;-6.57;76.81
56330;BME280;42236;48.058;10.632;2023-02-08T01:42:58;96322.75;;;-6.55;76.32
56330;BME280;42236;48.058;10.632;2023-02-08T01:45:44;96329.22;;;-6.57;76.32
56330;BME280;42236;48.058;10.632;2023-02-08T01:48:36;96331.81;;;-6.64;75.90
56330;BME280;42236;48.058;10.632;2023-02-08T01:51:26;96326.31;;;-6.69;76.43
56330;BME280;42236;48.058;10.632;2023-02-08T01:54:15;96322.44;;;-6.73;76.26
56330;BME280;42236;48.058;10.632;2023-02-08T01:57:02;96325.47;;;-6.76;76.34
56330;BME280;42236;48.058;10.632;2023-02-08T01:59:56;96333.50;;;-6.78;76.49
56330;BME280;42236;48.058;10.632;2023-02-08T02:02:45;96333.44;;;-6.84;76.29
56330;BME280;42236;48.058;10.632;2023-02-08T02:05:38;96340.69;;;-6.87;76.26
56330;BME280;42236;48.058;10.632;2023-02-08T02:08:24;96329.84;;;-6.83;76.58
56330;BME280;42236;48.058;10.632;2023-02-08T02:11:10;96319.94;;;-6.81;76.60
56330;BME280;42236;48.058;10.632;2023-02-08T02:13:56;96323.97;;;-6.85;76.02
56330;BME280;42236;48.058;10.632;2023-02-08T02:16:42;96331.03;;;-6.86;76.36
56330;BME280;42236;48.058;10.632;2023-02-08T02:26:10;96323.59;;;-6.82;76.33
56330;BME280;42236;48.058;10.632;2023-02-08T02:29:20;96315.72;;;-6.82;76.03
56330;BME280;42236;48.058;10.632;2023-02-08T02:32:23;96316.72;;;-6.83;76.45
56330;BME280;42236;48.058;10.632;2023-02-08T02:38:36;96312.47;;;-6.84;76.52
56330;BME280;42236;48.058;10.632;2023-02-08T02:41:35;96321.69;;;-6.89;76.34
56330;BME280;42236;48.058;10.632;2023-02-08T02:54:14;96307.47;;;-7.01;76.78
56330;BME280;42236;48.058;10.632;2023-02-08T02:57:04;96310.72;;;-6.99;76.98
56330;BME280;42236;48.058;10.632;2023-02-08T02:59:51;96306.28;;;-6.98;76.78
56330;BME280;42236;48.058;10.632;2023-02-08T03:02:37;96306.59;;;-7.08;76.50
56330;BME280;42236;48.058;10.632;2023-02-08T03:05:24;96307.78;;;-7.11;76.93
56330;BME280;42236;48.058;10.632;2023-02-08T03:11:36;96312.22;;;-7.11;77.25
56330;BME280;42236;48.058;10.632;2023-02-08T03:14:36;96305.78;;;-7.09;77.05
56330;BME280;42236;48.058;10.632;2023-02-08T03:17:33;96311.25;;;-7.10;76.96
56330;BME280;42236;48.058;10.632;2023-02-08T03:20:37;96300.50;;;-7.15;76.99
56330;BME280;42236;48.058;10.632;2023-02-08T03:23:37;96293.47;;;-7.15;77.18
56330;BME280;42236;48.058;10.632;2023-02-08T03:26:39;96300.69;;;-7.17;77.28
56330;BME280;42236;48.058;10.632;2023-02-08T03:29:38;96298.47;;;-7.20;77.64
56330;BME280;42236;48.058;10.632;2023-02-08T03:33:02;96298.25;;;-7.18;77.73
56330;BME280;42236;48.058;10.632;2023-02-08T03:36:11;96296.00;;;-7.21;77.76
56330;BME280;42236;48.058;10.632;2023-02-08T03:39:04;96299.13;;;-7.33;78.27
56330;BME280;42236;48.058;10.632;2023-02-08T03:41:56;96295.63;;;-7.40;78.45
56330;BME280;42236;48.058;10.632;2023-02-08T03:44:48;96290.75;;;-7.43;78.92
56330;BME280;42236;48.058;10.632;2023-02-08T03:47:38;96287.13;;;-7.42;78.95
56330;BME280;42236;48.058;10.632;2023-02-08T03:50:27;96286.53;;;-7.44;79.03
56330;BME280;42236;48.058;10.632;2023-02-08T03:53:16;96285.28;;;-7.48;79.15
56330;BME280;42236;48.058;10.632;2023-02-08T03:56:08;96282.66;;;-7.48;79.28
56330;BME280;42236;48.058;10.632;2023-02-08T03:58:57;96289.25;;;-7.52;79.61
56330;BME280;42236;48.058;10.632;2023-02-08T04:02:00;96280.41;;;-7.51;79.56
56330;BME280;42236;48.058;10.632;2023-02-08T04:04:48;96286.06;;;-7.47;79.63
56330;BME280;42236;48.058;10.632;2023-02-08T04:07:36;96281.63;;;-7.47;79.66
56330;BME280;42236;48.058;10.632;2023-02-08T04:10:21;96274.16;;;-7.50;79.74
56330;BME280;42236;48.058;10.632;2023-02-08T04:13:07;96283.84;;;-7.51;79.87
56330;BME280;42236;48.058;10.632;2023-02-08T04:15:53;96271.13;;;-7.54;80.07
56330;BME280;42236;48.058;10.632;2023-02-08T04:18:38;96272.91;;;-7.54;80.47
56330;BME280;42236;48.058;10.632;2023-02-08T04:21:24;96271.03;;;-7.60;80.65
56330;BME280;42236;48.058;10.632;2023-02-08T04:24:10;96271.75;;;-7.66;81.30
56330;BME280;42236;48.058;10.632;2023-02-08T04:26:55;96261.28;;;-7.66;81.52
56330;BME280;42236;48.058;10.632;2023-02-08T04:29:41;96264.28;;;-7.69;81.71
56330;BME280;42236;48.058;10.632;2023-02-08T04:32:26;96265.09;;;-7.69;81.22
56330;BME280;42236;48.058;10.632;2023-02-08T04:35:12;96262.09;;;-7.66;81.19
56330;BME280;42236;48.058;10.632;2023-02-08T04:37:58;96260.66;;;-7.68;81.09
56330;BME280;42236;48.058;10.632;2023-02-08T04:40:43;96267.28;;;-7.73;81.67
56330;BME280;42236;48.058;10.632;2023-02-08T04:43:29;96267.28;;;-7.73;81.74
56330;BME280;42236;48.058;10.632;2023-02-08T04:46:18;96266.47;;;-7.73;81.94
56330;BME280;42236;48.058;10.632;2023-02-08T04:49:03;96261.66;;;-7.69;81.35
56330;BME280;42236;48.058;10.632;2023-02-08T04:51:49;96262.69;;;-7.70;81.63
56330;BME280;42236;48.058;10.632;2023-02-08T04:54:34;96267.91;;;-7.70;81.41
56330;BME280;42236;48.058;10.632;2023-02-08T04:57:20;96264.66;;;-7.73;81.67
56330;BME280;42236;48.058;10.632;2023-02-08T05:00:06;96260.41;;;-7.74;81.58
56330;BME280;42236;48.058;10.632;2023-02-08T05:02:56;96252.94;;;-7.77;82.16
56330;BME280;42236;48.058;10.632;2023-02-08T05:05:42;96259.97;;;-7.77;81.99
56330;BME280;42236;48.058;10.632;2023-02-08T05:08:27;96258.34;;;-7.78;82.46
56330;BME280;42236;48.058;10.632;2023-02-08T05:11:22;96252.69;;;-7.82;82.34
56330;BME280;42236;48.058;10.632;2023-02-08T05:14:08;96245.19;;;-7.85;82.75
56330;BME280;42236;48.058;10.632;2023-02-08T05:16:53;96240.94;;;-7.86;82.77
56330;BME280;42236;48.058;10.632;2023-02-08T05:19:39;96242.56;;;-7.85;82.50
56330;BME280;42236;48.058;10.632;2023-02-08T05:22:25;96246.97;;;-7.85;82.56
56330;BME280;42236;48.058;10.632;2023-02-08T05:25:11;96249.44;;;-7.84;82.40
56330;BME280;42236;48.058;10.632;2023-02-08T05:27:58;96246.81;;;-7.84;82.31
56330;BME280;42236;48.058;10.632;2023-02-08T05:30:45;96243.56;;;-7.86;82.49
56330;BME280;42236;48.058;10.632;2023-02-08T05:33:30;96238.13;;;-7.84;81.98
56330;BME280;42236;48.058;10.632;2023-02-08T05:36:17;96236.59;;;-7.79;81.52
56330;BME280;42236;48.058;10.632;2023-02-08T05:39:03;96237.03;;;-7.75;81.56
56330;BME280;42236;48.058;10.632;2023-02-08T05:41:49;96235.41;;;-7.76;81.57
56330;BME280;42236;48.058;10.632;2023-02-08T05:44:35;96236.16;;;-7.82;81.76
56330;BME280;42236;48.058;10.632;2023-02-08T05:47:20;96231.84;;;-7.90;82.16
56330;BME280;42236;48.058;10.632;2023-02-08T05:50:06;96243.75;;;-7.87;82.27
56330;BME280;42236;48.058;10.632;2023-02-08T05:52:52;96232.91;;;-7.84;81.90
56330;BME280;42236;48.058;10.632;2023-02-08T05:55:38;96242.56;;;-7.85;81.57
56330;BME280;42236;48.058;10.632;2023-02-08T05:58:24;96245.19;;;-7.85;81.70
56330;BME280;42236;48.058;10.632;2023-02-08T06:01:11;96246.97;;;-7.85;81.63
56330;BME280;42236;48.058;10.632;2023-02-08T06:03:58;96240.94;;;-7.86;81.68
56330;BME280;42236;48.058;10.632;2023-02-08T06:06:44;96238.53;;;-7.87;81.68
56330;BME280;42236;48.058;10.632;2023-02-08T06:09:30;96244.94;;;-7.90;81.77
56330;BME280;42236;48.058;10.632;2023-02-08T06:12:15;96242.13;;;-7.88;81.88
56330;BME280;42236;48.058;10.632;2023-02-08T06:15:01;96240.06;;;-7.93;82.11
56330;BME280;42236;48.058;10.632;2023-02-08T06:17:47;96241.69;;;-7.92;81.93
56330;BME280;42236;48.058;10.632;2023-02-08T06:20:32;96244.47;;;-7.94;82.11
56330;BME280;42236;48.058;10.632;2023-02-08T06:23:19;96246.56;;;-7.89;82.01
56330;BME280;42236;48.058;10.632;2023-02-08T06:26:04;96253.94;;;-7.93;81.94
56330;BME280;42236;48.058;10.632;2023-02-08T06:28:50;96265.69;;;-7.88;81.88
56330;BME280;42236;48.058;10.632;2023-02-08T06:31:35;96263.53;;;-7.85;81.68
56330;BME280;42236;48.058;10.632;2023-02-08T06:34:21;96264.34;;;-7.84;81.65
56330;BME280;42236;48.058;10.632;2023-02-08T06:37:08;96263.53;;;-7.85;81.94
56330;BME280;42236;48.058;10.632;2023-02-08T06:39:53;96257.41;;;-7.92;82.88
56330;BME280;42236;48.058;10.632;2023-02-08T06:42:39;96259.47;;;-7.87;82.52
56330;BME280;42236;48.058;10.632;2023-02-08T06:45:24;96259.47;;;-7.87;82.96
56330;BME280;42236;48.058;10.632;2023-02-08T06:48:11;96260.91;;;-7.85;82.70
56330;BME280;42236;48.058;10.632;2023-02-08T06:50:56;96260.28;;;-7.87;82.95
56330;BME280;42236;48.058;10.632;2023-02-08T06:53:42;96258.91;;;-7.83;82.82
56330;BME280;42236;48.058;10.632;2023-02-08T06:56:28;96259.09;;;-7.84;83.30
56330;BME280;42236;48.058;10.632;2023-02-08T06:59:13;96270.84;;;-7.80;83.03
56330;BME280;42236;48.058;10.632;2023-02-08T07:01:59;96271.81;;;-7.81;83.21
56330;BME280;42236;48.058;10.632;2023-02-08T07:04:45;96273.25;;;-7.79;83.25
56330;BME280;42236;48.058;10.632;2023-02-08T07:07:30;96285.63;;;-7.73;83.23
56330;BME280;42236;48.058;10.632;2023-02-08T07:10:16;96286.59;;;-7.74;83.54
56330;BME280;42236;48.058;10.632;2023-02-08T07:13:02;96278.19;;;-7.69;83.43
56330;BME280;42236;48.058;10.632;2023-02-08T07:15:47;96279.84;;;-7.68;83.56
56330;BME280;42236;48.058;10.632;2023-02-08T07:18:34;96280.72;;;-7.61;83.47
56330;BME280;42236;48.058;10.632;2023-02-08T07:21:20;96283.22;;;-7.53;83.85
56330;BME280;42236;48.058;10.632;2023-02-08T07:24:06;96286.47;;;-7.51;83.98
56330;BME280;42236;48.058;10.632;2023-02-08T07:26:51;96289.75;;;-7.42;83.58
56330;BME280;42236;48.058;10.632;2023-02-08T07:29:38;96289.75;;;-7.42;83.52
56330;BME280;42236;48.058;10.632;2023-02-08T07:32:24;96284.78;;;-7.37;83.90
56330;BME280;42236;48.058;10.632;2023-02-08T07:35:09;96286.66;;;-7.31;83.63
56330;BME280;42236;48.058;10.632;2023-02-08T07:37:55;96284.66;;;-7.28;83.66
56330;BME280;42236;48.058;10.632;2023-02-08T07:40:41;96275.03;;;-7.21;83.87
56330;BME280;42236;48.058;10.632;2023-02-08T07:43:26;96279.25;;;-7.20;83.83
56330;BME280;42236;48.058;10.632;2023-02-08T07:46:15;96272.28;;;-7.13;84.00
56330;BME280;42236;48.058;10.632;2023-02-08T07:49:01;96268.09;;;-7.07;83.48
56330;BME280;42236;48.058;10.632;2023-02-08T07:51:46;96263.91;;;-7.02;83.90
56330;BME280;42236;48.058;10.632;2023-02-08T07:54:32;96261.91;;;-7.00;83.45
56330;BME280;42236;48.058;10.632;2023-02-08T07:57:18;96272.88;;;-6.90;83.59
56330;BME280;42236;48.058;10.632;2023-02-08T08:00:07;96266.03;;;-6.84;83.30
56330;BME280;42236;48.058;10.632;2023-02-08T08:02:52;96271.00;;;-6.68;83.32
56330;BME280;42236;48.058;10.632;2023-02-08T08:05:40;96277.91;;;-6.60;82.84
56330;BME280;42236;48.058;10.632;2023-02-08T08:08:26;96270.03;;;-6.60;82.27
56330;BME280;42236;48.058;10.632;2023-02-08T08:11:18;96274.94;;;-6.57;82.12
56330;BME280;42236;48.058;10.632;2023-02-08T08:14:04;96280.25;;;-6.44;82.29
56330;BME280;42236;48.058;10.632;2023-02-08T08:16:49;96284.16;;;-6.33;81.72
56330;BME280;42236;48.058;10.632;2023-02-08T08:19:35;96277.94;;;-6.25;81.78
56330;BME280;42236;48.058;10.632;2023-02-08T08:22:20;96280.22;;;-6.15;81.42
56330;BME280;42236;48.058;10.632;2023-02-08T08:25:06;96276.19;;;-6.05;81.32
56330;BME280;42236;48.058;10.632;2023-02-08T08:27:53;96280.25;;;-6.02;80.77
56330;BME280;42236;48.058;10.632;2023-02-08T08:30:42;96277.84;;;-6.04;80.77
56330;BME280;42236;48.058;10.632;2023-02-08T08:33:28;96275.22;;;-5.90;80.51
56330;BME280;42236;48.058;10.632;2023-02-08T08:36:14;96280.53;;;-5.77;80.47
56330;BME280;42236;48.058;10.632;2023-02-08T08:38:59;96271.44;;;-5.68;79.92
56330;BME280;42236;48.058;10.632;2023-02-08T08:41:45;96270.47;;;-5.53;80.29
56330;BME280;42236;48.058;10.632;2023-02-08T08:44:31;96265.88;;;-5.45;79.65
56330;BME280;42236;48.058;10.632;2023-02-08T08:47:17;96267.09;;;-5.41;79.22
56330;BME280;42236;48.058;10.632;2023-02-08T08:50:03;96266.09;;;-5.33;79.07
56330;BME280;42236;48.058;10.632;2023-02-08T08:52:49;96263.88;;;-5.36;79.01
56330;BME280;42236;48.058;10.632;2023-02-08T08:55:35;96259.03;;;-5.26;79.51
56330;BME280;42236;48.058;10.632;2023-02-08T08:58:20;96274.38;;;-5.23;78.48
56330;BME280;42236;48.058;10.632;2023-02-08T09:01:06;96273.97;;;-5.20;78.08
56330;BME280;42236;48.058;10.632;2023-02-08T09:03:52;96270.16;;;-5.10;78.32
56330;BME280;42236;48.058;10.632;2023-02-08T09:06:37;96261.66;;;-4.99;78.06
56330;BME280;42236;48.058;10.632;2023-02-08T09:09:23;96264.50;;;-4.94;77.54
56330;BME280;42236;48.058;10.632;2023-02-08T09:12:09;96253.75;;;-4.86;76.87
56330;BME280;42236;48.058;10.632;2023-02-08T09:14:54;96255.59;;;-4.80;76.95
56330;BME280;42236;48.058;10.632;2023-02-08T09:17:40;96252.97;;;-4.73;76.90
56330;BME280;42236;48.058;10.632;2023-02-08T09:20:26;96266.31;;;-4.68;77.11
56330;BME280;42236;48.058;10.632;2023-02-08T09:23:11;96261.84;;;-4.54;76.52
56330;BME280;42236;48.058;10.632;2023-02-08T09:26:01;96262.63;;;-4.47;76.07
56330;BME280;42236;48.058;10.632;2023-02-08T09:28:47;96256.13;;;-4.38;74.68
56330;BME280;42236;48.058;10.632;2023-02-08T09:31:35;96262.00;;;-4.29;74.58
56330;BME280;42236;48.058;10.632;2023-02-08T09:34:22;96262.19;;;-4.24;74.50
56330;BME280;42236;48.058;10.632;2023-02-08T09:37:07;96265.41;;;-4.15;74.73
56330;BME280;42236;48.058;10.632;2023-02-08T09:39:53;96271.47;;;-4.08;75.60
56330;BME280;42236;48.058;10.632;2023-02-08T09:42:43;96264.34;;;-4.01;74.38
56330;BME280;42236;48.058;10.632;2023-02-08T09:45:38;96249.91;;;-3.92;74.77
56330;BME280;42236;48.058;10.632;2023-02-08T09:48:30;96262.44;;;-3.80;73.33
56330;BME280;42236;48.058;10.632;2023-02-08T09:57:00;96253.00;;;-3.56;70.74
56330;BME280;42236;48.058;10.632;2023-02-08T09:59:54;96248.47;;;-3.42;71.15
56330;BME280;42236;48.058;10.632;2023-02-08T10:02:42;96252.63;;;-3.28;70.98
56330;BME280;42236;48.058;10.632;2023-02-08T10:05:30;96260.00;;;-3.12;70.14
56330;BME280;42236;48.058;10.632;2023-02-08T10:08:15;96260.63;;;-3.10;67.75
56330;BME280;42236;48.058;10.632;2023-02-08T10:14:12;96253.78;;;-2.92;67.24
56330;BME280;42236;48.058;10.632;2023-02-08T10:17:33;96256.16;;;-2.84;67.88
56330;BME280;42236;48.058;10.632;2023-02-08T10:33:00;96247.97;;;-2.32;65.76
56330;BME280;42236;48.058;10.632;2023-02-08T10:35:48;96250.56;;;-2.26;66.65
56330;BME280;42236;48.058;10.632;2023-02-08T10:38:37;96252.00;;;-2.30;65.15
56330;BME280;42236;48.058;10.632;2023-02-08T10:41:28;96240.56;;;-2.24;64.62
56330;BME280;42236;48.058;10.632;2023-02-08T10:50:36;96241.16;;;-2.03;65.65
56330;BME280;42236;48.058;10.632;2023-02-08T10:53:23;96235.13;;;-2.10;63.28
56330;BME280;42236;48.058;10.632;2023-02-08T10:56:23;96229.31;;;-2.01;65.34
56330;BME280;42236;48.058;10.632;2023-02-08T11:01:59;96221.91;;;-1.92;64.26
56330;BME280;42236;48.058;10.632;2023-02-08T11:05:06;96218.41;;;-2.04;63.11
56330;BME280;42236;48.058;10.632;2023-02-08T11:08:11;96213.63;;;-1.96;62.98
56330;BME280;42236;48.058;10.632;2023-02-08T11:11:03;96209.72;;;-1.93;64.19
56330;BME280;42236;48.058;10.632;2023-02-08T11:13:50;96211.25;;;-1.85;63.90
56330;BME280;42236;48.058;10.632;2023-02-08T11:16:36;96214.84;;;-1.80;64.40
56330;BME280;42236;48.058;10.632;2023-02-08T11:19:32;96217.47;;;-1.80;62.77
56330;BME280;42236;48.058;10.632;2023-02-08T11:22:21;96220.25;;;-1.75;63.76
56330;BME280;42236;48.058;10.632;2023-02-08T11:25:35;96221.66;;;-1.72;62.34
56330;BME280;42236;48.058;10.632;2023-02-08T11:28:29;96209.09;;;-1.77;61.62
56330;BME280;42236;48.058;10.632;2023-02-08T11:31:19;96212.47;;;-1.69;62.11
56330;BME280;42236;48.058;10.632;2023-02-08T11:34:10;96208.34;;;-1.65;63.28
56330;BME280;42236;48.058;10.632;2023-02-08T11:36:56;96202.47;;;-1.67;62.17
56330;BME280;42236;48.058;10.632;2023-02-08T11:39:55;96207.47;;;-1.59;63.10
56330;BME280;42236;48.058;10.632;2023-02-08T11:42:41;96199.78;;;-1.49;63.62
56330;BME280;42236;48.058;10.632;2023-02-08T11:45:34;96192.91;;;-1.38;65.11
56330;BME280;42236;48.058;10.632;2023-02-08T11:48:30;96193.94;;;-1.39;65.43
56330;BME280;42236;48.058;10.632;2023-02-08T11:51:32;96179.34;;;-1.30;65.66
56330;BME280;42236;48.058;10.632;2023-02-08T11:54:40;96180.25;;;-1.36;64.40
56330;BME280;42236;48.058;10.632;2023-02-08T11:57:26;96181.28;;;-1.37;65.06
56330;BME280;42236;48.058;10.632;2023-02-08T12:00:20;96175.41;;;-1.39;64.89
56330;BME280;42236;48.058;10.632;2023-02-08T12:03:16;96171.03;;;-1.34;65.00
56330;BME280;42236;48.058;10.632;2023-02-08T12:09:29;96162.91;;;-1.20;63.86
56330;BME280;42236;48.058;10.632;2023-02-08T12:15:31;96159.69;;;-1.22;63.46
56330;BME280;42236;48.058;10.632;2023-02-08T12:21:45;96143.44;;;-1.26;65.20
56330;BME280;42236;48.058;10.632;2023-02-08T12:27:46;96143.78;;;-1.22;64.65
56330;BME280;42236;48.058;10.632;2023-02-08T12:30:44;96137.44;;;-1.21;65.30
56330;BME280;42236;48.058;10.632;2023-02-08T12:34:00;96130.09;;;-1.19;65.42
56330;BME280;42236;48.058;10.632;2023-02-08T12:40:16;96118.25;;;-1.05;65.86
56330;BME280;42236;48.058;10.632;2023-02-08T12:55:53;96100.06;;;-1.01;67.61
56330;BME280;42236;48.058;10.632;2023-02-08T12:58:44;96099.00;;;-1.00;67.49
56330;BME280;42236;48.058;10.632;2023-02-08T13:01:34;96095.09;;;-0.98;67.22
56330;BME280;42236;48.058;10.632;2023-02-08T13:04:41;96091.28;;;-0.90;67.74
56330;BME280;42236;48.058;10.632;2023-02-08T13:07:34;96084.97;;;-1.01;67.18
56330;BME280;42236;48.058;10.632;2023-02-08T13:10:27;96085.09;;;-0.96;67.68
56330;BME280;42236;48.058;10.632;2023-02-08T13:13:24;96077.47;;;-0.92;67.31
56330;BME280;42236;48.058;10.632;2023-02-08T13:16:26;96086.69;;;-0.95;66.83
56330;BME280;42236;48.058;10.632;2023-02-08T13:19:25;96081.97;;;-0.93;67.32
56330;BME280;42236;48.058;10.632;2023-02-08T13:22:14;96070.56;;;-0.93;66.97
56330;BME280;42236;48.058;10.632;2023-02-08T13:25:01;96066.06;;;-0.93;67.38
56330;BME280;42236;48.058;10.632;2023-02-08T13:27:50;96072.84;;;-0.97;66.53
56330;BME280;42236;48.058;10.632;2023-02-08T13:30:37;96066.75;;;-1.09;67.14
56330;BME280;42236;48.058;10.632;2023-02-08T13:34:13;96056.44;;;-1.11;67.37
56330;BME280;42236;48.058;10.632;2023-02-08T13:36:59;96062.31;;;-1.09;67.03
56330;BME280;42236;48.058;10.632;2023-02-08T13:39:46;96059.06;;;-1.11;67.06
56330;BME280;42236;48.058;10.632;2023-02-08T13:45:43;96058.38;;;-1.18;67.48
56330;BME280;42236;48.058;10.632;2023-02-08T13:48:41;96070.09;;;-1.14;68.22
56330;BME280;42236;48.058;10.632;2023-02-08T13:54:13;96066.31;;;-1.06;68.00
56330;BME280;42236;48.058;10.632;2023-02-08T13:56:59;96066.44;;;-1.13;68.04
56330;BME280;42236;48.058;10.632;2023-02-08T14:00:18;96059.06;;;-1.22;67.95
56330;BME280;42236;48.058;10.632;2023-02-08T14:11:47;96064.94;;;-1.09;68.26
56330;BME280;42236;48.058;10.632;2023-02-08T14:14:36;96045.47;;;-1.02;68.40
56330;BME280;42236;48.058;10.632;2023-02-08T14:17:26;96038.47;;;-1.20;67.25
56330;BME280;42236;48.058;10.632;2023-02-08T14:20:19;96055.72;;;-1.06;68.19
56330;BME280;42236;48.058;10.632;2023-02-08T14:23:24;96050.75;;;-1.02;67.91
56330;BME280;42236;48.058;10.632;2023-02-08T14:26:19;96049.16;;;-1.15;68.02
56330;BME280;42236;48.058;10.632;2023-02-08T14:29:20;96051.47;;;-1.19;68.38
56330;BME280;42236;48.058;10.632;2023-02-08T14:32:07;96057.00;;;-1.20;68.89
56330;BME280;42236;48.058;10.632;2023-02-08T14:35:20;96059.66;;;-1.20;67.85
56330;BME280;42236;48.058;10.632;2023-02-08T14:41:04;96056.91;;;-1.25;67.78
56330;BME280;42236;48.058;10.632;2023-02-08T14:43:49;96059.66;;;-1.20;68.40
56330;BME280;42236;48.058;10.632;2023-02-08T14:49:25;96062.75;;;-1.35;68.55
56330;BME280;42236;48.058;10.632;2023-02-08T14:52:20;96072.19;;;-1.39;68.94
56330;BME280;42236;48.058;10.632;2023-02-08T14:55:14;96071.13;;;-1.38;69.28
56330;BME280;42236;48.058;10.632;2023-02-08T14:58:06;96071.81;;;-1.43;69.44
56330;BME280;42236;48.058;10.632;2023-02-08T15:01:01;96064.69;;;-1.54;69.35
56330;BME280;42236;48.058;10.632;2023-02-08T15:03:49;96065.41;;;-1.47;69.93
56330;BME280;42236;48.058;10.632;2023-02-08T15:09:28;96069.19;;;-1.55;70.58
56330;BME280;42236;48.058;10.632;2023-02-08T15:12:24;96076.06;;;-1.65;70.06
56330;BME280;42236;48.058;10.632;2023-02-08T15:15:27;96062.94;;;-1.72;70.15
56330;BME280;42236;48.058;10.632;2023-02-08T15:18:17;96061.09;;;-1.72;70.45
56330;BME280;42236;48.058;10.632;2023-02-08T15:21:07;96059.81;;;-1.81;71.14
56330;BME280;42236;48.058;10.632;2023-02-08T15:26:52;96062.22;;;-1.79;71.19
56330;BME280;42236;48.058;10.632;2023-02-08T15:29:40;96063.06;;;-1.79;71.24
56330;BME280;42236;48.058;10.632;2023-02-08T15:32:27;96069.13;;;-1.78;71.06
56330;BME280;42236;48.058;10.632;2023-02-08T15:35:17;96069.69;;;-1.88;70.89
56330;BME280;42236;48.058;10.632;2023-02-08T15:38:16;96074.84;;;-1.93;71.75
56330;BME280;42236;48.058;10.632;2023-02-08T15:41:09;96075.78;;;-1.87;71.91
56330;BME280;42236;48.058;10.632;2023-02-08T15:44:16;96073.81;;;-1.92;71.69
56330;BME280;42236;48.058;10.632;2023-02-08T15:47:04;96089.88;;;-2.05;72.04
56330;BME280;42236;48.058;10.632;2023-02-08T15:49:54;96083.41;;;-2.09;72.20
56330;BME280;42236;48.058;10.632;2023-02-08T15:52:40;96083.59;;;-2.23;72.08
56330;BME280;42236;48.058;10.632;2023-02-08T15:55:31;96079.22;;;-2.29;72.50
56330;BME280;42236;48.058;10.632;2023-02-08T15:58:34;96079.06;;;-2.34;72.25
56330;BME280;42236;48.058;10.632;2023-02-08T16:01:22;96087.00;;;-2.34;72.82
56330;BME280;42236;48.058;10.632;2023-02-08T16:04:08;96085.03;;;-2.39;72.67
56330;BME280;42236;48.058;10.632;2023-02-08T16:06:56;96089.72;;;-2.41;72.96
56330;BME280;42236;48.058;10.632;2023-02-08T16:09:45;96079.00;;;-2.46;73.49
56330;BME280;42236;48.058;10.632;2023-02-08T16:12:31;96085.03;;;-2.39;73.31
56330;BME280;42236;48.058;10.632;2023-02-08T16:15:33;96083.25;;;-2.45;73.57
56330;BME280;42236;48.058;10.632;2023-02-08T16:18:39;96083.13;;;-2.50;74.08
56330;BME280;42236;48.058;10.632;2023-02-08T16:27:44;96081.06;;;-2.66;74.13
56330;BME280;42236;48.058;10.632;2023-02-08T16:30:18;96082.19;;;-2.74;74.70
56330;BME280;42236;48.058;10.632;2023-02-08T16:33:06;96094.19;;;-2.78;74.77
56330;BME280;42236;48.058;10.632;2023-02-08T16:35:52;96084.53;;;-2.84;74.85
56330;BME280;42236;48.058;10.632;2023-02-08T16:42:05;96095.38;;;-2.92;75.04
56330;BME280;42236;48.058;10.632;2023-02-08T16:47:54;96097.84;;;-2.97;75.40